createdAt,value
2022-07-25T00:01:44.880Z,48.17
2022-07-25T00:04:14.531Z,48.12
2022-07-25T00:06:42.262Z,48.27
2022-07-25T00:09:09.171Z,48.13
2022-07-25T00:11:35.842Z,48.19
2022-07-25T00:14:02.920Z,48.27
2022-07-25T00:16:29.811Z,48.20
2022-07-25T00:18:56.516Z,48.03
2022-07-25T00:21:23.225Z,48.21
2022-07-25T00:23:50.462Z,48.01
2022-07-25T00:26:17.201Z,48.17
2022-07-25T00:28:44.147Z,48.02
2022-07-25T00:31:11.038Z,48.03
2022-07-25T00:33:37.932Z,48.06
2022-07-25T00:36:04.936Z,48.28
2022-07-25T00:38:31.614Z,48.03
2022-07-25T00:40:58.400Z,47.87
2022-07-25T00:43:25.136Z,47.96
2022-07-25T00:45:51.851Z,48.10
2022-07-25T00:48:18.784Z,47.96
2022-07-25T00:50:45.704Z,48.22
2022-07-25T00:53:12.533Z,48.18
2022-07-25T00:55:40.534Z,48.02
2022-07-25T00:58:07.234Z,47.94
2022-07-25T01:00:33.901Z,47.91
2022-07-25T01:03:00.882Z,48.04
2022-07-25T01:05:27.662Z,47.98
2022-07-25T01:07:54.497Z,48.08
2022-07-25T01:10:21.221Z,47.92
2022-07-25T01:12:52.465Z,48.03
2022-07-25T01:15:20.228Z,47.94
2022-07-25T01:17:47.300Z,48.12
2022-07-25T01:20:24.590Z,48.03
2022-07-25T01:22:51.551Z,47.93
2022-07-25T01:25:19.594Z,47.70
2022-07-25T01:27:49.977Z,48.05
2022-07-25T01:30:22.992Z,47.99
2022-07-25T01:32:49.740Z,47.97
2022-07-25T01:35:16.495Z,48.05
2022-07-25T01:37:45.837Z,47.91
2022-07-25T01:40:13.155Z,47.87
2022-07-25T01:42:39.888Z,48.07
2022-07-25T01:45:07.327Z,47.92
2022-07-25T01:47:34.061Z,47.88
2022-07-25T01:50:00.778Z,47.67
2022-07-25T01:52:27.541Z,47.85
2022-07-25T01:54:54.258Z,47.87
2022-07-25T01:57:21.532Z,47.85
2022-07-25T01:59:51.037Z,47.98
2022-07-25T02:02:17.697Z,47.83
2022-07-25T02:04:44.411Z,47.82
2022-07-25T02:07:11.246Z,47.89
2022-07-25T02:09:37.956Z,47.97
2022-07-25T02:12:04.925Z,47.63
2022-07-25T02:14:31.601Z,47.76
2022-07-25T02:16:58.290Z,47.71
2022-07-25T02:19:25.144Z,47.78
2022-07-25T02:21:51.959Z,48.06
2022-07-25T02:24:18.616Z,47.78
2022-07-25T02:26:45.304Z,47.88
2022-07-25T02:29:11.940Z,47.75
2022-07-25T02:31:38.686Z,47.86
2022-07-25T02:34:05.835Z,47.84
2022-07-25T02:36:32.774Z,48.01
2022-07-25T02:38:59.417Z,47.88
2022-07-25T02:41:26.193Z,48.09
2022-07-25T02:43:55.550Z,48.03
2022-07-25T02:46:22.372Z,47.87
2022-07-25T02:48:49.229Z,48.07
2022-07-25T02:51:16.178Z,48.14
2022-07-25T02:54:09.136Z,47.80
2022-07-25T02:56:29.760Z,48.15
2022-07-25T02:58:57.505Z,47.89
2022-07-25T03:01:24.319Z,47.95
2022-07-25T03:03:51.190Z,48.17
2022-07-25T03:06:18.349Z,48.05
2022-07-25T03:08:45.144Z,47.90
2022-07-25T03:11:13.393Z,47.92
2022-07-25T03:13:40.352Z,48.04
2022-07-25T03:16:07.428Z,47.80
2022-07-25T03:18:34.181Z,48.09
2022-07-25T03:21:00.833Z,47.90
2022-07-25T03:23:28.523Z,47.96
2022-07-25T03:25:55.973Z,48.07
2022-07-25T03:28:23.285Z,48.16
2022-07-25T03:30:50.090Z,48.01
2022-07-25T03:33:16.831Z,47.93
2022-07-25T03:35:45.498Z,48.06
2022-07-25T03:38:12.151Z,47.97
2022-07-25T03:40:39.676Z,47.91
2022-07-25T03:43:06.494Z,48.19
2022-07-25T03:45:33.323Z,47.94
2022-07-25T03:48:00.085Z,48.07
2022-07-25T03:50:26.821Z,48.02
2022-07-25T03:52:53.471Z,48.29
2022-07-25T03:55:20.175Z,48.01
2022-07-25T03:57:47.171Z,48.32
2022-07-25T04:00:14.140Z,48.06
2022-07-25T04:02:40.967Z,47.93
2022-07-25T04:05:08.546Z,48.03
2022-07-25T04:07:36.020Z,48.12
2022-07-25T04:10:04.486Z,48.21
2022-07-25T04:12:31.199Z,48.14
2022-07-25T04:14:58.412Z,48.22
2022-07-25T04:17:25.809Z,48.17
2022-07-25T04:19:52.677Z,48.11
2022-07-25T04:22:19.445Z,48.23
2022-07-25T04:24:46.173Z,48.23
2022-07-25T04:27:12.991Z,48.10
2022-07-25T04:29:39.749Z,48.15
2022-07-25T04:32:06.879Z,48.18
2022-07-25T04:34:33.747Z,47.99
2022-07-25T04:37:00.535Z,48.02
2022-07-25T04:39:27.404Z,48.10
2022-07-25T04:41:54.067Z,47.96
2022-07-25T04:44:20.778Z,48.11
2022-07-25T04:46:47.442Z,47.98
2022-07-25T04:49:14.227Z,48.05
2022-07-25T04:51:41.021Z,48.24
2022-07-25T04:54:08.075Z,48.16
2022-07-25T04:56:35.195Z,48.03
2022-07-25T04:59:06.198Z,48.13
2022-07-25T05:01:33.367Z,47.98
2022-07-25T05:04:00.127Z,48.04
2022-07-25T05:06:26.863Z,47.98
2022-07-25T05:08:53.602Z,48.02
2022-07-25T05:11:20.440Z,47.98
2022-07-25T05:13:47.131Z,48.10
2022-07-25T05:16:13.915Z,48.30
2022-07-25T05:18:40.862Z,47.39
2022-07-25T05:21:11.298Z,46.92
2022-07-25T05:23:37.958Z,46.94
2022-07-25T05:26:04.740Z,46.71
2022-07-25T05:28:31.441Z,46.56
2022-07-25T05:30:58.189Z,46.17
2022-07-25T05:33:26.673Z,46.32
2022-07-25T05:35:53.479Z,45.78
2022-07-25T05:38:20.637Z,45.76
2022-07-25T05:40:48.188Z,45.35
2022-07-25T05:43:14.918Z,45.00
2022-07-25T05:45:41.613Z,45.49
2022-07-25T05:48:08.333Z,45.45
2022-07-25T05:50:37.229Z,45.13
2022-07-25T05:53:03.933Z,45.18
2022-07-25T05:55:30.639Z,45.27
2022-07-25T05:57:57.461Z,45.24
2022-07-25T06:00:24.400Z,45.30
2022-07-25T06:02:51.288Z,45.05
2022-07-25T06:05:18.166Z,45.42
2022-07-25T06:07:45.088Z,45.61
2022-07-25T06:10:11.865Z,45.53
2022-07-25T06:12:38.778Z,45.70
2022-07-25T06:15:07.554Z,45.80
2022-07-25T06:17:39.439Z,45.75
2022-07-25T06:20:06.667Z,45.84
2022-07-25T06:22:34.018Z,45.98
2022-07-25T06:25:02.942Z,46.10
2022-07-25T06:27:29.677Z,46.24
2022-07-25T06:29:56.579Z,46.34
2022-07-25T06:32:23.390Z,46.55
2022-07-25T06:34:50.279Z,46.72
2022-07-25T06:37:16.929Z,46.83
2022-07-25T06:39:45.924Z,46.91
2022-07-25T06:42:12.931Z,46.97
2022-07-25T06:44:39.700Z,47.25
2022-07-25T06:47:10.681Z,47.51
2022-07-25T06:49:37.447Z,47.72
2022-07-25T06:52:04.616Z,47.90
2022-07-25T06:54:31.295Z,48.04
2022-07-25T06:56:58.050Z,47.99
2022-07-25T06:59:24.846Z,48.11
2022-07-25T07:01:51.958Z,48.30
2022-07-25T07:04:18.893Z,48.25
2022-07-25T07:06:45.570Z,48.67
2022-07-25T07:09:12.228Z,48.60
2022-07-25T07:11:38.986Z,48.91
2022-07-25T07:14:05.885Z,49.20
2022-07-25T07:16:32.939Z,49.11
2022-07-25T07:18:59.702Z,48.64
2022-07-25T07:21:26.524Z,48.79
2022-07-25T07:23:53.478Z,48.88
2022-07-25T07:26:20.841Z,48.96
2022-07-25T07:28:47.661Z,48.75
2022-07-25T07:31:18.054Z,49.00
2022-07-25T07:33:45.819Z,49.47
2022-07-25T07:36:12.593Z,49.37
2022-07-25T07:38:40.135Z,49.02
2022-07-25T07:41:06.845Z,49.04
2022-07-25T07:43:33.541Z,49.12
2022-07-25T07:46:03.446Z,48.77
2022-07-25T07:48:30.971Z,48.90
2022-07-25T07:50:58.174Z,49.09
2022-07-25T07:53:44.876Z,49.16
2022-07-25T07:56:12.323Z,49.35
2022-07-25T07:58:39.264Z,49.03
2022-07-25T08:01:06.677Z,48.77
2022-07-25T08:03:33.550Z,48.90
2022-07-25T08:06:03.844Z,48.89
2022-07-25T08:08:31.594Z,48.78
2022-07-25T08:10:59.631Z,49.04
2022-07-25T08:13:31.727Z,49.05
2022-07-25T08:16:03.355Z,48.67
2022-07-25T08:18:32.911Z,48.62
2022-07-25T08:21:03.325Z,48.42
2022-07-25T08:23:32.084Z,48.13
2022-07-25T08:25:59.565Z,48.32
2022-07-25T08:28:26.672Z,48.22
2022-07-25T08:30:53.730Z,48.29
2022-07-25T08:33:20.782Z,47.98
2022-07-25T08:35:49.533Z,47.88
2022-07-25T08:38:16.603Z,47.97
2022-07-25T08:40:43.268Z,47.72
2022-07-25T08:43:14.611Z,47.69
2022-07-25T08:45:47.838Z,47.86
2022-07-25T08:48:18.228Z,47.88
2022-07-25T08:50:44.999Z,47.93
2022-07-25T08:55:59.064Z,47.84
2022-07-25T08:58:26.113Z,47.82
2022-07-25T09:00:53.023Z,47.65
2022-07-25T09:03:19.775Z,47.73
2022-07-25T09:05:46.589Z,47.15
2022-07-25T09:08:17.674Z,47.58
2022-07-25T09:10:49.756Z,47.25
2022-07-25T09:13:17.467Z,47.42
2022-07-25T09:15:52.697Z,47.56
2022-07-25T09:18:23.833Z,47.31
2022-07-25T09:20:55.765Z,47.35
2022-07-25T09:23:38.711Z,47.46
2022-07-25T09:26:10.543Z,47.16
2022-07-25T09:28:48.028Z,47.23
2022-07-25T09:31:16.125Z,47.00
2022-07-25T09:33:57.182Z,46.59
2022-07-25T09:36:24.389Z,46.27
2022-07-25T09:38:55.127Z,46.23
2022-07-25T09:41:22.204Z,46.69
2022-07-25T09:43:48.888Z,46.87
2022-07-25T09:46:15.688Z,46.70
2022-07-25T09:48:45.159Z,46.86
2022-07-25T09:51:12.828Z,47.31
2022-07-25T09:53:40.663Z,47.10
2022-07-25T09:56:08.494Z,47.22
2022-07-25T09:58:35.228Z,47.18
2022-07-25T10:01:05.516Z,47.34
2022-07-25T10:03:53.022Z,47.35
2022-07-25T10:06:21.761Z,47.37
2022-07-25T10:08:49.813Z,47.08
2022-07-25T10:11:20.417Z,47.45
2022-07-25T10:13:47.194Z,47.45
2022-07-25T10:16:18.823Z,47.71
2022-07-25T10:18:54.340Z,47.66
2022-07-25T10:21:26.997Z,47.64
2022-07-25T10:24:03.015Z,47.67
2022-07-25T10:26:30.220Z,47.63
2022-07-25T10:28:58.152Z,47.47
2022-07-25T10:31:50.292Z,47.88
2022-07-25T10:34:28.989Z,47.76
2022-07-25T10:36:57.478Z,47.79
2022-07-25T10:39:24.369Z,47.81
2022-07-25T10:41:56.139Z,47.74
2022-07-25T10:44:22.995Z,47.73
2022-07-25T10:46:50.478Z,47.91
2022-07-25T10:49:32.103Z,47.82
2022-07-25T10:52:03.919Z,47.61
2022-07-25T10:54:38.526Z,47.72
2022-07-25T10:57:07.050Z,47.80
2022-07-25T10:59:33.750Z,47.74
2022-07-25T11:02:00.926Z,47.83
2022-07-25T11:04:28.122Z,47.80
2022-07-25T11:06:54.812Z,48.01
2022-07-25T11:09:27.723Z,47.83
2022-07-25T11:11:59.313Z,47.81
2022-07-25T11:14:31.489Z,48.00
2022-07-25T11:16:59.514Z,47.68
2022-07-25T11:19:28.633Z,47.63
2022-07-25T11:21:59.869Z,47.19
2022-07-25T11:24:44.248Z,47.07
2022-07-25T11:27:24.097Z,47.14
2022-07-25T11:29:50.921Z,46.54
2022-07-25T11:32:17.765Z,46.52
2022-07-25T11:34:48.166Z,46.38
2022-07-25T11:37:15.902Z,46.24
2022-07-25T11:39:45.073Z,46.21
2022-07-25T11:42:19.024Z,46.46
2022-07-25T11:44:49.000Z,46.49
2022-07-25T11:47:33.349Z,46.34
2022-07-25T11:50:05.370Z,46.00
2022-07-25T11:52:34.595Z,45.66
2022-07-25T11:55:13.265Z,45.60
2022-07-25T11:57:42.215Z,45.57
2022-07-25T12:00:11.698Z,45.69
2022-07-25T12:02:38.730Z,45.75
2022-07-25T12:05:10.770Z,45.73
2022-07-25T12:07:45.954Z,45.62
2022-07-25T12:10:37.889Z,45.51
2022-07-25T12:13:06.378Z,45.91
2022-07-25T12:15:38.494Z,45.65
2022-07-25T12:18:06.423Z,45.75
2022-07-25T12:20:36.245Z,45.54
2022-07-25T12:23:05.553Z,45.58
2022-07-25T12:25:33.526Z,45.69
2022-07-25T12:28:00.851Z,45.76
2022-07-25T12:30:28.765Z,45.60
2022-07-25T12:32:56.481Z,45.74
2022-07-25T12:35:23.907Z,45.79
2022-07-25T12:37:50.851Z,45.64
2022-07-25T12:40:18.249Z,45.83
2022-07-25T12:42:45.419Z,45.70
2022-07-25T12:45:12.739Z,45.74
2022-07-25T12:47:39.415Z,45.77
2022-07-25T12:50:08.134Z,45.50
2022-07-25T12:52:35.006Z,45.67
2022-07-25T12:55:01.851Z,45.48
2022-07-25T12:57:28.760Z,45.62
2022-07-25T12:59:55.485Z,45.78
2022-07-25T13:02:22.226Z,45.59
2022-07-25T13:04:49.235Z,45.75
2022-07-25T13:07:16.470Z,45.61
2022-07-25T13:09:43.314Z,45.93
2022-07-25T13:12:14.731Z,45.77
2022-07-25T13:14:43.189Z,45.86
2022-07-25T13:17:09.917Z,46.00
2022-07-25T13:19:37.131Z,45.52
2022-07-25T13:22:03.945Z,46.03
2022-07-25T13:24:31.336Z,46.15
2022-07-25T13:26:58.117Z,46.13
2022-07-25T13:29:24.793Z,46.20
2022-07-25T13:31:51.600Z,45.90
2022-07-25T13:34:18.599Z,46.26
2022-07-25T13:36:45.413Z,46.04
2022-07-25T13:39:12.143Z,46.11
2022-07-25T13:41:38.814Z,46.21
2022-07-25T13:44:05.693Z,46.27
2022-07-25T13:46:33.867Z,46.25
2022-07-25T13:49:00.603Z,46.30
2022-07-25T13:51:27.472Z,46.31
2022-07-25T13:53:54.147Z,46.09
2022-07-25T13:56:20.817Z,46.43
2022-07-25T13:58:48.097Z,46.73
2022-07-25T14:01:15.296Z,46.90
2022-07-25T14:03:42.073Z,46.90
2022-07-25T14:06:10.546Z,46.95
2022-07-25T14:08:40.464Z,46.92
2022-07-25T14:11:08.513Z,47.08
2022-07-25T14:13:36.398Z,46.89
2022-07-25T14:16:03.280Z,47.08
2022-07-25T14:18:31.995Z,47.01
2022-07-25T14:20:59.729Z,47.03
2022-07-25T14:23:29.921Z,46.66
2022-07-25T14:25:58.655Z,46.76
2022-07-25T14:28:25.668Z,47.00
2022-07-25T14:30:52.616Z,46.89
2022-07-25T14:33:19.434Z,47.00
2022-07-25T14:35:46.209Z,47.12
2022-07-25T14:38:12.934Z,47.03
2022-07-25T14:40:42.189Z,47.00
2022-07-25T14:43:08.978Z,46.87
2022-07-25T14:45:37.284Z,46.85
2022-07-25T14:48:07.038Z,46.86
2022-07-25T14:50:33.951Z,46.63
2022-07-25T14:53:00.627Z,46.61
2022-07-25T14:55:27.388Z,46.68
2022-07-25T14:57:54.136Z,46.41
2022-07-25T15:00:22.792Z,46.46
2022-07-25T15:02:51.672Z,46.63
2022-07-25T15:05:18.626Z,46.17
2022-07-25T15:07:47.845Z,44.12
2022-07-25T15:10:14.634Z,43.95
2022-07-25T15:12:41.340Z,43.77
2022-07-25T15:15:08.244Z,43.25
2022-07-25T15:17:34.999Z,43.26
2022-07-25T15:20:01.825Z,43.17
2022-07-25T15:22:28.506Z,42.88
2022-07-25T15:25:34.822Z,42.57
2022-07-25T15:27:41.907Z,42.38
2022-07-25T15:30:09.274Z,41.81
2022-07-25T15:32:35.999Z,41.89
2022-07-25T15:35:02.987Z,41.23
2022-07-25T15:37:29.890Z,41.38
2022-07-25T15:39:56.728Z,41.05
2022-07-25T15:42:28.669Z,41.10
2022-07-25T15:45:09.323Z,40.55
2022-07-25T15:47:45.166Z,40.78
2022-07-25T15:50:15.678Z,40.57
2022-07-25T15:52:42.483Z,39.78
2022-07-25T15:55:09.556Z,39.19
2022-07-25T15:57:36.673Z,39.53
2022-07-25T16:00:05.818Z,39.53
2022-07-25T16:02:32.542Z,39.47
2022-07-25T16:04:59.248Z,39.51
2022-07-25T16:07:25.985Z,39.58
2022-07-25T16:09:52.852Z,39.61
2022-07-25T16:12:27.854Z,39.43
2022-07-25T16:14:55.380Z,40.13
2022-07-25T16:17:22.293Z,40.76
2022-07-25T16:19:49.012Z,40.97
2022-07-25T16:22:15.781Z,40.67
2022-07-25T16:24:42.577Z,40.39
2022-07-25T16:27:10.144Z,40.57
2022-07-25T16:29:37.351Z,40.47
2022-07-25T16:32:04.695Z,40.61
2022-07-25T16:34:31.735Z,40.38
2022-07-25T16:36:58.492Z,40.76
2022-07-25T16:39:25.282Z,40.75
2022-07-25T16:41:52.047Z,40.49
2022-07-25T16:44:18.953Z,41.20
2022-07-25T16:46:46.109Z,40.99
2022-07-25T16:49:15.575Z,41.44
2022-07-25T16:51:43.190Z,40.72
2022-07-25T16:54:10.014Z,41.33
2022-07-25T16:56:37.409Z,41.87
2022-07-25T16:59:05.475Z,41.44
2022-07-25T17:01:33.257Z,41.37
2022-07-25T17:04:00.026Z,41.52
2022-07-25T17:06:27.455Z,41.40
2022-07-25T17:08:54.270Z,40.43
2022-07-25T17:11:21.269Z,40.44
2022-07-25T17:13:48.080Z,40.86
2022-07-25T17:16:15.240Z,40.40
2022-07-25T17:18:42.018Z,40.33
2022-07-25T17:21:10.107Z,40.36
2022-07-25T17:23:36.945Z,40.42
2022-07-25T17:26:05.503Z,40.61
2022-07-25T17:28:32.401Z,40.30
2022-07-25T17:30:59.253Z,40.88
2022-07-25T17:33:26.206Z,40.63
2022-07-25T17:35:53.132Z,40.58
2022-07-25T17:38:25.380Z,40.49
2022-07-25T17:40:53.132Z,40.02
2022-07-25T17:43:19.915Z,40.37
2022-07-25T17:45:46.685Z,40.17
2022-07-25T17:48:13.468Z,39.89
2022-07-25T17:50:40.517Z,40.31
2022-07-25T17:53:07.661Z,40.12
2022-07-25T17:55:38.765Z,40.48
2022-07-25T17:58:06.091Z,40.28
2022-07-25T18:00:32.876Z,40.42
2022-07-25T18:02:59.619Z,39.73
2022-07-25T18:05:26.890Z,40.18
2022-07-25T18:07:54.069Z,40.26
2022-07-25T18:10:23.939Z,40.37
2022-07-25T18:12:50.982Z,40.48
2022-07-25T18:15:17.813Z,40.91
2022-07-25T18:17:45.959Z,41.36
2022-07-25T18:20:13.654Z,41.70
2022-07-25T18:22:41.934Z,40.97
2022-07-25T18:25:11.709Z,41.46
2022-07-25T18:27:44.262Z,41.45
2022-07-25T18:30:11.971Z,42.27
2022-07-25T18:32:39.289Z,42.23
2022-07-25T18:35:07.978Z,42.43
2022-07-25T18:37:34.776Z,42.12
2022-07-25T18:40:01.575Z,42.37
2022-07-25T18:42:30.076Z,42.24
2022-07-25T18:44:57.135Z,42.66
2022-07-25T18:47:32.012Z,42.70
2022-07-25T18:49:59.441Z,42.43
2022-07-25T18:52:26.247Z,42.82
2022-07-25T18:54:52.918Z,42.85
2022-07-25T18:57:19.636Z,42.39
2022-07-25T18:59:46.392Z,41.94
2022-07-25T19:02:13.099Z,42.49
2022-07-25T19:04:39.875Z,42.47
2022-07-25T19:07:09.298Z,42.43
2022-07-25T19:09:36.067Z,42.55
2022-07-25T19:12:03.039Z,43.23
2022-07-25T19:14:30.854Z,42.80
2022-07-25T19:16:59.319Z,43.01
2022-07-25T19:19:26.293Z,43.51
2022-07-25T19:21:54.022Z,42.58
2022-07-25T19:24:21.168Z,42.58
2022-07-25T19:26:48.761Z,43.01
2022-07-25T19:29:16.762Z,43.15
2022-07-25T19:31:44.299Z,42.99
2022-07-25T19:34:11.731Z,42.61
2022-07-25T19:36:38.829Z,42.90
2022-07-25T19:39:06.444Z,43.00
2022-07-25T19:41:33.494Z,42.97
2022-07-25T19:44:00.280Z,42.96
2022-07-25T19:46:31.416Z,42.57
2022-07-25T19:48:58.527Z,42.11
2022-07-25T19:51:25.782Z,42.33
2022-07-25T19:53:52.609Z,42.79
2022-07-25T19:56:19.783Z,43.40
2022-07-25T19:58:47.004Z,43.13
2022-07-25T20:01:13.855Z,43.27
2022-07-25T20:03:41.694Z,43.49
2022-07-25T20:06:09.001Z,43.33
2022-07-25T20:08:37.300Z,43.73
2022-07-25T20:11:04.012Z,43.81
2022-07-25T20:13:30.808Z,43.58
2022-07-25T20:15:58.783Z,43.58
2022-07-25T20:18:25.642Z,43.59
2022-07-25T20:20:52.544Z,43.61
2022-07-25T20:23:19.223Z,43.85
2022-07-25T20:25:46.044Z,43.51
2022-07-25T20:28:12.892Z,43.58
2022-07-25T20:30:40.153Z,43.52
2022-07-25T20:33:09.099Z,43.76
2022-07-25T20:35:37.239Z,43.60
2022-07-25T20:38:09.341Z,43.93
2022-07-25T20:40:40.037Z,43.73
2022-07-25T20:43:09.550Z,43.93
2022-07-25T20:45:36.917Z,43.93
2022-07-25T20:48:04.616Z,43.85
2022-07-25T20:50:31.438Z,43.85
2022-07-25T20:52:58.432Z,43.83
2022-07-25T20:55:25.147Z,44.07
2022-07-25T20:57:51.855Z,43.93
2022-07-25T21:00:18.592Z,44.29
2022-07-25T21:02:45.452Z,43.99
2022-07-25T21:05:12.189Z,44.01
2022-07-25T21:07:38.874Z,44.14
2022-07-25T21:10:06.021Z,44.18
2022-07-25T21:12:33.260Z,44.29
2022-07-25T21:15:01.406Z,44.32
2022-07-25T21:17:28.453Z,44.50
2022-07-25T21:19:55.177Z,44.48
2022-07-25T21:22:22.116Z,44.35
2022-07-25T21:24:51.336Z,44.38
2022-07-25T21:27:18.109Z,44.20
2022-07-25T21:29:44.853Z,44.31
2022-07-25T21:32:14.692Z,44.72
2022-07-25T21:34:42.011Z,44.59
2022-07-25T21:37:08.779Z,44.60
2022-07-25T21:39:35.876Z,44.40
2022-07-25T21:42:02.590Z,44.40
2022-07-25T21:44:31.569Z,44.55
2022-07-25T21:46:58.284Z,44.36
2022-07-25T21:49:43.740Z,44.54
2022-07-25T21:52:13.321Z,44.75
2022-07-25T21:54:40.890Z,44.76
2022-07-25T21:57:13.341Z,44.40
2022-07-25T21:59:45.123Z,44.70
2022-07-25T22:02:12.388Z,44.58
2022-07-25T22:04:39.376Z,44.63
2022-07-25T22:07:06.350Z,44.60
2022-07-25T22:09:33.099Z,44.67
2022-07-25T22:11:59.821Z,44.78
2022-07-25T22:14:26.622Z,44.68
2022-07-25T22:16:53.453Z,44.65
2022-07-25T22:19:22.556Z,44.82
2022-07-25T22:21:50.392Z,44.75
2022-07-25T22:24:17.123Z,44.84
2022-07-25T22:26:44.031Z,45.28
2022-07-25T22:29:11.229Z,45.05
2022-07-25T22:31:41.716Z,45.02
2022-07-25T22:34:08.578Z,45.24
2022-07-25T22:36:35.339Z,45.16
2022-07-25T22:39:02.078Z,45.29
2022-07-25T22:41:28.788Z,44.79
2022-07-25T22:43:58.629Z,44.88
2022-07-25T22:46:27.265Z,44.61
2022-07-25T22:48:54.015Z,44.42
2022-07-25T22:51:20.769Z,44.24
2022-07-25T22:53:47.461Z,44.25
2022-07-25T22:56:14.247Z,44.43
2022-07-25T22:58:40.983Z,44.26
2022-07-25T23:01:08.130Z,44.23
2022-07-25T23:03:36.033Z,44.23
2022-07-25T23:06:02.952Z,44.12
2022-07-25T23:08:29.733Z,44.05
2022-07-25T23:10:56.447Z,43.96
2022-07-25T23:13:23.168Z,44.09
2022-07-25T23:15:51.454Z,44.08
2022-07-25T23:18:18.950Z,43.98
2022-07-25T23:20:45.890Z,44.15
2022-07-25T23:23:13.099Z,44.04
2022-07-25T23:25:39.981Z,43.95
2022-07-25T23:28:06.796Z,43.99
2022-07-25T23:30:38.196Z,44.12
2022-07-25T23:33:06.797Z,44.13
2022-07-25T23:35:33.733Z,44.25
2022-07-25T23:38:00.419Z,44.25
2022-07-25T23:40:27.882Z,43.97
2022-07-25T23:42:54.964Z,43.94
2022-07-25T23:45:25.015Z,43.97
2022-07-25T23:47:55.092Z,44.06
2022-07-25T23:50:23.005Z,43.96
2022-07-25T23:52:49.962Z,44.08
2022-07-25T23:55:16.690Z,44.06
2022-07-25T23:57:43.439Z,44.24
